sensor_id;sensor_type;location;lat;lon;timestamp;temperature;humidity
6146;DHT22;3104;50.348;7.620;2023-04-28T00:01:41;13.40;48.20
6146;DHT22;3104;50.348;7.620;2023-04-28T00:04:07;13.40;48.10
6146;DHT22;3104;50.348;7.620;2023-04-28T00:06:32;13.50;47.40
6146;DHT22;3104;50.348;7.620;2023-04-28T00:08:58;13.40;48.00
6146;DHT22;3104;50.348;7.620;2023-04-28T00:11:24;13.30;48.40
6146;DHT22;3104;50.348;7.620;2023-04-28T00:13:50;13.30;49.70
6146;DHT22;3104;50.348;7.620;2023-04-28T00:16:16;13.30;51.70
6146;DHT22;3104;50.348;7.620;2023-04-28T00:18:41;13.30;58.50
6146;DHT22;3104;50.348;7.620;2023-04-28T00:21:07;13.30;59.10
6146;DHT22;3104;50.348;7.620;2023-04-28T00:23:33;13.40;64.50
6146;DHT22;3104;50.348;7.620;2023-04-28T00:25:58;13.30;76.50
6146;DHT22;3104;50.348;7.620;2023-04-28T00:28:24;13.20;82.00
6146;DHT22;3104;50.348;7.620;2023-04-28T00:30:49;13.10;82.70
6146;DHT22;3104;50.348;7.620;2023-04-28T00:33:15;13.10;86.10
6146;DHT22;3104;50.348;7.620;2023-04-28T00:35:40;12.90;93.30
6146;DHT22;3104;50.348;7.620;2023-04-28T00:38:06;12.80;95.30
6146;DHT22;3104;50.348;7.620;2023-04-28T00:40:36;12.70;91.60
6146;DHT22;3104;50.348;7.620;2023-04-28T00:43:02;12.60;99.90
6146;DHT22;3104;50.348;7.620;2023-04-28T00:45:29;12.30;99.90
6146;DHT22;3104;50.348;7.620;2023-04-28T00:47:55;12.20;99.90
6146;DHT22;3104;50.348;7.620;2023-04-28T00:50:22;12.30;99.90
6146;DHT22;3104;50.348;7.620;2023-04-28T00:52:49;12.30;99.90
6146;DHT22;3104;50.348;7.620;2023-04-28T00:55:16;12.40;99.90
6146;DHT22;3104;50.348;7.620;2023-04-28T00:57:41;12.40;99.90
6146;DHT22;3104;50.348;7.620;2023-04-28T01:00:08;12.50;99.90
6146;DHT22;3104;50.348;7.620;2023-04-28T01:02:37;12.40;99.90
6146;DHT22;3104;50.348;7.620;2023-04-28T01:05:03;12.40;99.90
6146;DHT22;3104;50.348;7.620;2023-04-28T01:07:29;12.30;99.90
6146;DHT22;3104;50.348;7.620;2023-04-28T01:09:55;12.30;99.90
6146;DHT22;3104;50.348;7.620;2023-04-28T01:12:21;12.30;99.90
6146;DHT22;3104;50.348;7.620;2023-04-28T01:14:48;12.30;99.90
6146;DHT22;3104;50.348;7.620;2023-04-28T01:17:13;12.40;99.90
6146;DHT22;3104;50.348;7.620;2023-04-28T01:19:39;12.40;99.90
6146;DHT22;3104;50.348;7.620;2023-04-28T01:22:05;12.30;99.90
6146;DHT22;3104;50.348;7.620;2023-04-28T01:24:31;12.40;99.90
6146;DHT22;3104;50.348;7.620;2023-04-28T01:26:56;12.30;99.90
6146;DHT22;3104;50.348;7.620;2023-04-28T01:29:22;12.20;99.90
6146;DHT22;3104;50.348;7.620;2023-04-28T01:31:47;12.20;99.90
6146;DHT22;3104;50.348;7.620;2023-04-28T01:34:13;12.30;99.90
6146;DHT22;3104;50.348;7.620;2023-04-28T01:36:39;12.40;99.90
6146;DHT22;3104;50.348;7.620;2023-04-28T01:39:04;12.40;99.90
6146;DHT22;3104;50.348;7.620;2023-04-28T01:41:30;12.30;99.90
6146;DHT22;3104;50.348;7.620;2023-04-28T01:43:58;12.20;99.90
6146;DHT22;3104;50.348;7.620;2023-04-28T01:46:24;12.20;99.90
6146;DHT22;3104;50.348;7.620;2023-04-28T01:48:50;12.10;99.90
6146;DHT22;3104;50.348;7.620;2023-04-28T01:51:15;12.10;99.90
6146;DHT22;3104;50.348;7.620;2023-04-28T01:53:41;12.00;99.90
6146;DHT22;3104;50.348;7.620;2023-04-28T01:56:07;12.00;99.90
6146;DHT22;3104;50.348;7.620;2023-04-28T01:58:32;12.20;99.90
6146;DHT22;3104;50.348;7.620;2023-04-28T02:00:58;12.20;99.90
6146;DHT22;3104;50.348;7.620;2023-04-28T02:03:23;12.20;99.90
6146;DHT22;3104;50.348;7.620;2023-04-28T02:05:49;12.20;99.90
6146;DHT22;3104;50.348;7.620;2023-04-28T02:08:14;12.30;99.90
6146;DHT22;3104;50.348;7.620;2023-04-28T02:10:40;12.20;99.90
6146;DHT22;3104;50.348;7.620;2023-04-28T02:13:06;12.20;99.90
6146;DHT22;3104;50.348;7.620;2023-04-28T02:15:31;12.10;99.90
6146;DHT22;3104;50.348;7.620;2023-04-28T02:17:57;11.90;99.90
6146;DHT22;3104;50.348;7.620;2023-04-28T02:20:22;12.00;99.90
6146;DHT22;3104;50.348;7.620;2023-04-28T02:22:48;12.10;99.90
6146;DHT22;3104;50.348;7.620;2023-04-28T02:25:14;12.00;99.90
6146;DHT22;3104;50.348;7.620;2023-04-28T02:27:40;11.90;99.90
6146;DHT22;3104;50.348;7.620;2023-04-28T02:30:06;12.00;99.90
6146;DHT22;3104;50.348;7.620;2023-04-28T02:32:32;12.00;99.90
6146;DHT22;3104;50.348;7.620;2023-04-28T02:34:57;12.00;99.90
6146;DHT22;3104;50.348;7.620;2023-04-28T02:37:23;11.80;99.90
6146;DHT22;3104;50.348;7.620;2023-04-28T02:39:48;11.90;99.90
6146;DHT22;3104;50.348;7.620;2023-04-28T02:42:14;11.90;99.90
6146;DHT22;3104;50.348;7.620;2023-04-28T02:44:40;11.90;99.90
6146;DHT22;3104;50.348;7.620;2023-04-28T02:47:06;11.90;99.90
6146;DHT22;3104;50.348;7.620;2023-04-28T02:49:31;11.90;99.90
6146;DHT22;3104;50.348;7.620;2023-04-28T02:51:57;11.90;99.90
6146;DHT22;3104;50.348;7.620;2023-04-28T02:54:22;11.70;99.90
6146;DHT22;3104;50.348;7.620;2023-04-28T02:56:54;11.70;99.90
6146;DHT22;3104;50.348;7.620;2023-04-28T02:59:21;11.90;99.90
6146;DHT22;3104;50.348;7.620;2023-04-28T03:01:47;11.80;99.90
6146;DHT22;3104;50.348;7.620;2023-04-28T03:04:13;11.60;99.90
6146;DHT22;3104;50.348;7.620;2023-04-28T03:06:40;11.50;99.90
6146;DHT22;3104;50.348;7.620;2023-04-28T03:09:06;11.40;99.90
6146;DHT22;3104;50.348;7.620;2023-04-28T03:11:32;11.30;99.90
6146;DHT22;3104;50.348;7.620;2023-04-28T03:13:58;11.20;99.90
6146;DHT22;3104;50.348;7.620;2023-04-28T03:16:23;11.40;99.90
6146;DHT22;3104;50.348;7.620;2023-04-28T03:18:49;11.30;99.90
6146;DHT22;3104;50.348;7.620;2023-04-28T03:21:14;11.20;99.90
6146;DHT22;3104;50.348;7.620;2023-04-28T03:23:40;11.20;99.90
6146;DHT22;3104;50.348;7.620;2023-04-28T03:26:06;11.00;99.90
6146;DHT22;3104;50.348;7.620;2023-04-28T03:28:31;11.10;99.90
6146;DHT22;3104;50.348;7.620;2023-04-28T03:30:57;11.20;99.90
6146;DHT22;3104;50.348;7.620;2023-04-28T03:33:23;11.30;99.90
6146;DHT22;3104;50.348;7.620;2023-04-28T03:35:48;11.50;99.90
6146;DHT22;3104;50.348;7.620;2023-04-28T03:38:14;11.50;99.90
6146;DHT22;3104;50.348;7.620;2023-04-28T03:40:39;11.50;99.90
6146;DHT22;3104;50.348;7.620;2023-04-28T03:43:05;11.50;99.90
6146;DHT22;3104;50.348;7.620;2023-04-28T03:45:32;11.50;99.90
6146;DHT22;3104;50.348;7.620;2023-04-28T03:47:57;11.50;99.90
6146;DHT22;3104;50.348;7.620;2023-04-28T03:50:23;11.30;99.90
6146;DHT22;3104;50.348;7.620;2023-04-28T03:52:48;11.30;99.90
6146;DHT22;3104;50.348;7.620;2023-04-28T03:55:14;11.30;99.90
6146;DHT22;3104;50.348;7.620;2023-04-28T03:57:39;11.20;99.90
6146;DHT22;3104;50.348;7.620;2023-04-28T04:00:05;11.10;99.90
6146;DHT22;3104;50.348;7.620;2023-04-28T04:02:32;11.10;99.90
6146;DHT22;3104;50.348;7.620;2023-04-28T04:04:57;11.10;99.90
6146;DHT22;3104;50.348;7.620;2023-04-28T04:07:23;11.20;99.90
6146;DHT22;3104;50.348;7.620;2023-04-28T04:09:48;11.20;99.90
6146;DHT22;3104;50.348;7.620;2023-04-28T04:12:14;11.30;99.90
6146;DHT22;3104;50.348;7.620;2023-04-28T04:14:40;11.20;99.90
6146;DHT22;3104;50.348;7.620;2023-04-28T04:17:05;11.20;99.90
6146;DHT22;3104;50.348;7.620;2023-04-28T04:19:32;11.20;99.90
6146;DHT22;3104;50.348;7.620;2023-04-28T04:21:57;11.30;99.90
6146;DHT22;3104;50.348;7.620;2023-04-28T04:24:23;11.30;99.90
6146;DHT22;3104;50.348;7.620;2023-04-28T04:26:48;11.30;99.90
6146;DHT22;3104;50.348;7.620;2023-04-28T04:29:14;11.20;99.90
6146;DHT22;3104;50.348;7.620;2023-04-28T04:31:39;11.20;99.90
6146;DHT22;3104;50.348;7.620;2023-04-28T04:34:05;11.20;99.90
6146;DHT22;3104;50.348;7.620;2023-04-28T04:36:31;11.10;99.90
6146;DHT22;3104;50.348;7.620;2023-04-28T04:38:57;11.10;99.90
6146;DHT22;3104;50.348;7.620;2023-04-28T04:41:25;11.20;99.90
6146;DHT22;3104;50.348;7.620;2023-04-28T04:43:50;11.10;99.90
6146;DHT22;3104;50.348;7.620;2023-04-28T04:46:16;11.10;99.90
6146;DHT22;3104;50.348;7.620;2023-04-28T04:48:42;11.20;99.90
6146;DHT22;3104;50.348;7.620;2023-04-28T04:51:07;11.20;99.90
6146;DHT22;3104;50.348;7.620;2023-04-28T04:53:33;11.20;99.90
6146;DHT22;3104;50.348;7.620;2023-04-28T04:55:59;11.10;99.90
6146;DHT22;3104;50.348;7.620;2023-04-28T04:58:25;11.20;99.90
6146;DHT22;3104;50.348;7.620;2023-04-28T05:00:50;11.10;99.90
6146;DHT22;3104;50.348;7.620;2023-04-28T05:03:16;11.10;99.90
6146;DHT22;3104;50.348;7.620;2023-04-28T05:05:42;11.10;99.90
6146;DHT22;3104;50.348;7.620;2023-04-28T05:08:10;11.00;99.90
6146;DHT22;3104;50.348;7.620;2023-04-28T05:10:36;11.10;99.90
6146;DHT22;3104;50.348;7.620;2023-04-28T05:13:01;11.20;99.90
6146;DHT22;3104;50.348;7.620;2023-04-28T05:15:27;11.20;99.90
6146;DHT22;3104;50.348;7.620;2023-04-28T05:17:53;11.20;99.90
6146;DHT22;3104;50.348;7.620;2023-04-28T05:20:18;11.20;99.90
6146;DHT22;3104;50.348;7.620;2023-04-28T05:22:44;11.10;99.90
6146;DHT22;3104;50.348;7.620;2023-04-28T05:25:09;11.10;99.90
6146;DHT22;3104;50.348;7.620;2023-04-28T05:27:35;10.90;99.90
6146;DHT22;3104;50.348;7.620;2023-04-28T05:30:04;10.70;99.90
6146;DHT22;3104;50.348;7.620;2023-04-28T05:32:30;10.50;99.90
6146;DHT22;3104;50.348;7.620;2023-04-28T05:34:56;10.50;99.90
6146;DHT22;3104;50.348;7.620;2023-04-28T05:37:21;10.60;99.90
6146;DHT22;3104;50.348;7.620;2023-04-28T05:39:47;10.80;99.90
6146;DHT22;3104;50.348;7.620;2023-04-28T05:42:12;10.80;99.90
6146;DHT22;3104;50.348;7.620;2023-04-28T05:44:38;10.50;99.90
6146;DHT22;3104;50.348;7.620;2023-04-28T05:47:03;10.60;99.90
6146;DHT22;3104;50.348;7.620;2023-04-28T05:49:29;10.70;99.90
6146;DHT22;3104;50.348;7.620;2023-04-28T05:51:54;10.80;99.90
6146;DHT22;3104;50.348;7.620;2023-04-28T05:54:20;10.80;99.90
6146;DHT22;3104;50.348;7.620;2023-04-28T05:56:46;10.70;99.90
6146;DHT22;3104;50.348;7.620;2023-04-28T05:59:11;10.60;99.90
6146;DHT22;3104;50.348;7.620;2023-04-28T06:01:37;10.40;99.90
6146;DHT22;3104;50.348;7.620;2023-04-28T06:04:03;10.50;99.90
6146;DHT22;3104;50.348;7.620;2023-04-28T06:06:28;10.50;99.90
6146;DHT22;3104;50.348;7.620;2023-04-28T06:08:54;10.50;99.90
6146;DHT22;3104;50.348;7.620;2023-04-28T06:11:20;10.50;99.90
6146;DHT22;3104;50.348;7.620;2023-04-28T06:13:47;10.50;99.90
6146;DHT22;3104;50.348;7.620;2023-04-28T06:16:14;10.60;99.90
6146;DHT22;3104;50.348;7.620;2023-04-28T06:18:40;10.60;99.90
6146;DHT22;3104;50.348;7.620;2023-04-28T06:21:05;10.60;99.90
6146;DHT22;3104;50.348;7.620;2023-04-28T06:23:31;10.60;99.90
6146;DHT22;3104;50.348;7.620;2023-04-28T06:25:56;10.70;99.90
6146;DHT22;3104;50.348;7.620;2023-04-28T06:28:22;10.70;99.90
6146;DHT22;3104;50.348;7.620;2023-04-28T06:30:47;10.80;99.90
6146;DHT22;3104;50.348;7.620;2023-04-28T06:33:13;10.90;99.90
6146;DHT22;3104;50.348;7.620;2023-04-28T06:35:39;10.90;99.90
6146;DHT22;3104;50.348;7.620;2023-04-28T06:38:05;10.90;99.90
6146;DHT22;3104;50.348;7.620;2023-04-28T06:40:31;10.90;99.90
6146;DHT22;3104;50.348;7.620;2023-04-28T06:42:57;11.00;99.90
6146;DHT22;3104;50.348;7.620;2023-04-28T06:45:22;10.90;99.90
6146;DHT22;3104;50.348;7.620;2023-04-28T06:47:48;11.00;99.90
6146;DHT22;3104;50.348;7.620;2023-04-28T06:50:13;10.90;99.90
6146;DHT22;3104;50.348;7.620;2023-04-28T06:52:39;10.90;99.90
6146;DHT22;3104;50.348;7.620;2023-04-28T06:55:06;10.80;99.90
6146;DHT22;3104;50.348;7.620;2023-04-28T06:57:33;10.90;99.90
6146;DHT22;3104;50.348;7.620;2023-04-28T06:59:59;11.00;99.90
6146;DHT22;3104;50.348;7.620;2023-04-28T07:02:25;11.10;99.90
6146;DHT22;3104;50.348;7.620;2023-04-28T07:04:51;11.10;99.90
6146;DHT22;3104;50.348;7.620;2023-04-28T07:07:17;11.10;99.90
6146;DHT22;3104;50.348;7.620;2023-04-28T07:09:43;11.20;99.90
6146;DHT22;3104;50.348;7.620;2023-04-28T07:12:08;11.40;99.90
6146;DHT22;3104;50.348;7.620;2023-04-28T07:14:34;11.50;99.90
6146;DHT22;3104;50.348;7.620;2023-04-28T07:17:00;11.50;99.90
6146;DHT22;3104;50.348;7.620;2023-04-28T07:19:25;11.60;99.90
6146;DHT22;3104;50.348;7.620;2023-04-28T07:21:51;11.60;99.90
6146;DHT22;3104;50.348;7.620;2023-04-28T07:24:16;11.70;99.90
6146;DHT22;3104;50.348;7.620;2023-04-28T07:26:42;11.70;99.90
6146;DHT22;3104;50.348;7.620;2023-04-28T07:29:08;11.60;99.90
6146;DHT22;3104;50.348;7.620;2023-04-28T07:31:34;11.40;99.90
6146;DHT22;3104;50.348;7.620;2023-04-28T07:34:00;11.60;99.90
6146;DHT22;3104;50.348;7.620;2023-04-28T07:36:26;11.70;99.90
6146;DHT22;3104;50.348;7.620;2023-04-28T07:38:51;11.90;99.90
6146;DHT22;3104;50.348;7.620;2023-04-28T07:41:17;12.00;99.90
6146;DHT22;3104;50.348;7.620;2023-04-28T07:43:43;12.10;99.90
6146;DHT22;3104;50.348;7.620;2023-04-28T07:46:09;12.20;99.90
6146;DHT22;3104;50.348;7.620;2023-04-28T07:48:35;12.20;99.90
6146;DHT22;3104;50.348;7.620;2023-04-28T07:51:00;12.30;99.90
6146;DHT22;3104;50.348;7.620;2023-04-28T07:53:26;12.30;99.90
6146;DHT22;3104;50.348;7.620;2023-04-28T07:55:53;12.40;99.90
6146;DHT22;3104;50.348;7.620;2023-04-28T07:58:19;12.60;99.90
6146;DHT22;3104;50.348;7.620;2023-04-28T08:00:44;12.80;99.90
6146;DHT22;3104;50.348;7.620;2023-04-28T08:03:10;13.10;99.90
6146;DHT22;3104;50.348;7.620;2023-04-28T08:05:38;13.10;99.90
6146;DHT22;3104;50.348;7.620;2023-04-28T08:08:04;13.10;99.90
6146;DHT22;3104;50.348;7.620;2023-04-28T08:10:29;13.10;99.90
6146;DHT22;3104;50.348;7.620;2023-04-28T08:12:55;13.20;99.90
6146;DHT22;3104;50.348;7.620;2023-04-28T08:15:20;13.40;99.90
6146;DHT22;3104;50.348;7.620;2023-04-28T08:17:46;13.50;99.90
6146;DHT22;3104;50.348;7.620;2023-04-28T08:20:11;13.60;99.90
6146;DHT22;3104;50.348;7.620;2023-04-28T08:22:40;13.80;99.90
6146;DHT22;3104;50.348;7.620;2023-04-28T08:25:06;13.90;99.90
6146;DHT22;3104;50.348;7.620;2023-04-28T08:27:32;13.80;99.90
6146;DHT22;3104;50.348;7.620;2023-04-28T08:29:58;13.80;99.90
6146;DHT22;3104;50.348;7.620;2023-04-28T08:32:24;13.80;99.90
6146;DHT22;3104;50.348;7.620;2023-04-28T08:34:49;14.00;99.90
6146;DHT22;3104;50.348;7.620;2023-04-28T08:37:15;14.10;99.90
6146;DHT22;3104;50.348;7.620;2023-04-28T08:39:40;14.10;99.90
6146;DHT22;3104;50.348;7.620;2023-04-28T08:42:07;14.40;99.90
6146;DHT22;3104;50.348;7.620;2023-04-28T08:44:39;14.60;99.90
6146;DHT22;3104;50.348;7.620;2023-04-28T08:47:12;14.90;99.90
6146;DHT22;3104;50.348;7.620;2023-04-28T08:49:41;15.10;99.90
6146;DHT22;3104;50.348;7.620;2023-04-28T08:52:12;15.30;99.90
6146;DHT22;3104;50.348;7.620;2023-04-28T08:54:41;15.60;99.90
6146;DHT22;3104;50.348;7.620;2023-04-28T08:57:09;16.30;99.90
6146;DHT22;3104;50.348;7.620;2023-04-28T08:59:37;16.10;99.90
6146;DHT22;3104;50.348;7.620;2023-04-28T09:02:04;16.00;99.90
6146;DHT22;3104;50.348;7.620;2023-04-28T09:04:29;15.90;99.90
6146;DHT22;3104;50.348;7.620;2023-04-28T09:06:55;16.00;99.90
6146;DHT22;3104;50.348;7.620;2023-04-28T09:09:28;16.00;99.90
6146;DHT22;3104;50.348;7.620;2023-04-28T09:11:59;16.00;99.90
6146;DHT22;3104;50.348;7.620;2023-04-28T09:14:29;16.10;99.90
6146;DHT22;3104;50.348;7.620;2023-04-28T09:16:55;16.20;99.90
6146;DHT22;3104;50.348;7.620;2023-04-28T09:19:21;16.90;99.90
6146;DHT22;3104;50.348;7.620;2023-04-28T09:21:54;16.80;99.90
6146;DHT22;3104;50.348;7.620;2023-04-28T09:24:32;16.60;99.90
6146;DHT22;3104;50.348;7.620;2023-04-28T09:26:59;16.50;99.90
6146;DHT22;3104;50.348;7.620;2023-04-28T09:29:25;16.40;99.90
6146;DHT22;3104;50.348;7.620;2023-04-28T09:31:51;16.30;99.90
6146;DHT22;3104;50.348;7.620;2023-04-28T09:34:18;16.10;99.90
6146;DHT22;3104;50.348;7.620;2023-04-28T09:36:43;16.10;99.90
6146;DHT22;3104;50.348;7.620;2023-04-28T09:39:09;16.00;99.90
6146;DHT22;3104;50.348;7.620;2023-04-28T09:41:43;15.90;99.90
6146;DHT22;3104;50.348;7.620;2023-04-28T09:44:17;16.10;99.90
6146;DHT22;3104;50.348;7.620;2023-04-28T09:46:44;16.40;99.90
6146;DHT22;3104;50.348;7.620;2023-04-28T09:49:11;16.50;99.90
6146;DHT22;3104;50.348;7.620;2023-04-28T09:51:37;16.70;99.90
6146;DHT22;3104;50.348;7.620;2023-04-28T09:54:04;16.50;99.90
6146;DHT22;3104;50.348;7.620;2023-04-28T09:56:31;16.70;99.90
6146;DHT22;3104;50.348;7.620;2023-04-28T09:58:58;16.80;99.90
6146;DHT22;3104;50.348;7.620;2023-04-28T10:01:26;17.10;99.90
6146;DHT22;3104;50.348;7.620;2023-04-28T10:03:52;17.30;99.90
6146;DHT22;3104;50.348;7.620;2023-04-28T10:06:19;17.20;99.90
6146;DHT22;3104;50.348;7.620;2023-04-28T10:08:44;17.60;99.90
6146;DHT22;3104;50.348;7.620;2023-04-28T10:11:13;18.00;99.90
6146;DHT22;3104;50.348;7.620;2023-04-28T10:13:41;18.10;99.90
6146;DHT22;3104;50.348;7.620;2023-04-28T10:16:09;18.20;99.90
6146;DHT22;3104;50.348;7.620;2023-04-28T10:18:35;18.20;99.90
6146;DHT22;3104;50.348;7.620;2023-04-28T10:21:02;17.80;99.90
6146;DHT22;3104;50.348;7.620;2023-04-28T10:29:26;18.10;99.90
6146;DHT22;3104;50.348;7.620;2023-04-28T10:32:14;18.10;99.90
6146;DHT22;3104;50.348;7.620;2023-04-28T10:34:40;18.00;99.90
6146;DHT22;3104;50.348;7.620;2023-04-28T10:37:05;18.30;99.90
6146;DHT22;3104;50.348;7.620;2023-04-28T10:39:31;18.50;99.90
6146;DHT22;3104;50.348;7.620;2023-04-28T10:41:57;19.30;99.90
6146;DHT22;3104;50.348;7.620;2023-04-28T10:44:43;19.80;99.90
6146;DHT22;3104;50.348;7.620;2023-04-28T10:47:09;19.60;99.90
6146;DHT22;3104;50.348;7.620;2023-04-28T11:00:42;20.00;99.90
6146;DHT22;3104;50.348;7.620;2023-04-28T11:03:07;19.50;99.90
6146;DHT22;3104;50.348;7.620;2023-04-28T11:05:33;19.50;99.90
6146;DHT22;3104;50.348;7.620;2023-04-28T11:11:11;20.60;99.90
6146;DHT22;3104;50.348;7.620;2023-04-28T11:13:40;21.20;99.90
6146;DHT22;3104;50.348;7.620;2023-04-28T11:16:06;21.60;99.90
6146;DHT22;3104;50.348;7.620;2023-04-28T11:18:52;21.90;99.90
6146;DHT22;3104;50.348;7.620;2023-04-28T11:21:19;21.90;99.90
6146;DHT22;3104;50.348;7.620;2023-04-28T11:23:46;21.90;99.80
6146;DHT22;3104;50.348;7.620;2023-04-28T11:26:12;21.70;99.90
6146;DHT22;3104;50.348;7.620;2023-04-28T11:28:52;21.70;99.90
6146;DHT22;3104;50.348;7.620;2023-04-28T11:31:19;22.00;99.50
6146;DHT22;3104;50.348;7.620;2023-04-28T11:34:07;22.20;99.20
6146;DHT22;3104;50.348;7.620;2023-04-28T11:36:37;21.90;99.90
6146;DHT22;3104;50.348;7.620;2023-04-28T11:39:04;22.20;98.30
6146;DHT22;3104;50.348;7.620;2023-04-28T11:41:42;22.10;99.50
6146;DHT22;3104;50.348;7.620;2023-04-28T11:44:19;22.60;99.90
6146;DHT22;3104;50.348;7.620;2023-04-28T11:46:48;22.50;97.70
6146;DHT22;3104;50.348;7.620;2023-04-28T11:49:22;22.90;93.50
6146;DHT22;3104;50.348;7.620;2023-04-28T11:51:52;23.10;94.60
6146;DHT22;3104;50.348;7.620;2023-04-28T11:54:23;23.40;92.30
6146;DHT22;3104;50.348;7.620;2023-04-28T11:56:50;22.70;92.10
6146;DHT22;3104;50.348;7.620;2023-04-28T11:59:16;22.30;95.70
6146;DHT22;3104;50.348;7.620;2023-04-28T12:04:11;23.40;90.00
6146;DHT22;3104;50.348;7.620;2023-04-28T12:06:38;23.90;88.20
6146;DHT22;3104;50.348;7.620;2023-04-28T12:09:19;24.00;79.30
6146;DHT22;3104;50.348;7.620;2023-04-28T12:11:58;23.70;81.00
6146;DHT22;3104;50.348;7.620;2023-04-28T12:14:24;23.30;89.50
6146;DHT22;3104;50.348;7.620;2023-04-28T12:16:50;23.40;88.70
6146;DHT22;3104;50.348;7.620;2023-04-28T12:19:17;22.90;91.00
6146;DHT22;3104;50.348;7.620;2023-04-28T12:21:58;22.60;95.20
6146;DHT22;3104;50.348;7.620;2023-04-28T12:24:25;22.80;91.80
6146;DHT22;3104;50.348;7.620;2023-04-28T12:26:51;22.80;93.90
6146;DHT22;3104;50.348;7.620;2023-04-28T12:29:36;22.90;93.70
6146;DHT22;3104;50.348;7.620;2023-04-28T12:32:07;22.90;96.60
6146;DHT22;3104;50.348;7.620;2023-04-28T12:34:34;23.00;92.90
6146;DHT22;3104;50.348;7.620;2023-04-28T12:37:00;23.20;93.10
6146;DHT22;3104;50.348;7.620;2023-04-28T12:39:27;23.20;84.90
6146;DHT22;3104;50.348;7.620;2023-04-28T12:41:53;23.40;91.00
6146;DHT22;3104;50.348;7.620;2023-04-28T12:44:20;23.10;89.50
6146;DHT22;3104;50.348;7.620;2023-04-28T12:46:47;23.10;92.20
6146;DHT22;3104;50.348;7.620;2023-04-28T12:49:12;22.60;96.20
6146;DHT22;3104;50.348;7.620;2023-04-28T12:51:39;22.50;95.50
6146;DHT22;3104;50.348;7.620;2023-04-28T12:54:05;22.50;96.40
6146;DHT22;3104;50.348;7.620;2023-04-28T12:56:31;22.40;96.60
6146;DHT22;3104;50.348;7.620;2023-04-28T12:58:56;22.20;97.70
6146;DHT22;3104;50.348;7.620;2023-04-28T13:01:22;22.00;98.30
6146;DHT22;3104;50.348;7.620;2023-04-28T13:03:48;21.90;98.20
6146;DHT22;3104;50.348;7.620;2023-04-28T13:06:16;21.50;99.90
6146;DHT22;3104;50.348;7.620;2023-04-28T13:08:42;21.40;99.90
6146;DHT22;3104;50.348;7.620;2023-04-28T13:11:09;21.40;99.90
6146;DHT22;3104;50.348;7.620;2023-04-28T13:13:35;21.20;99.90
6146;DHT22;3104;50.348;7.620;2023-04-28T13:16:01;21.30;99.90
6146;DHT22;3104;50.348;7.620;2023-04-28T13:18:29;21.10;99.90
6146;DHT22;3104;50.348;7.620;2023-04-28T13:20:55;20.80;99.90
6146;DHT22;3104;50.348;7.620;2023-04-28T13:23:21;20.40;99.90
6146;DHT22;3104;50.348;7.620;2023-04-28T13:25:47;20.30;99.90
6146;DHT22;3104;50.348;7.620;2023-04-28T13:28:12;20.20;99.90
6146;DHT22;3104;50.348;7.620;2023-04-28T13:30:38;20.00;99.90
6146;DHT22;3104;50.348;7.620;2023-04-28T13:33:04;20.10;99.90
6146;DHT22;3104;50.348;7.620;2023-04-28T13:35:30;20.20;99.90
6146;DHT22;3104;50.348;7.620;2023-04-28T13:37:55;20.50;99.90
6146;DHT22;3104;50.348;7.620;2023-04-28T13:40:27;20.70;99.90
6146;DHT22;3104;50.348;7.620;2023-04-28T13:42:53;20.70;99.90
6146;DHT22;3104;50.348;7.620;2023-04-28T13:45:18;20.60;99.90
6146;DHT22;3104;50.348;7.620;2023-04-28T13:47:44;20.30;99.90
6146;DHT22;3104;50.348;7.620;2023-04-28T13:50:09;20.10;99.90
6146;DHT22;3104;50.348;7.620;2023-04-28T13:52:35;19.80;99.90
6146;DHT22;3104;50.348;7.620;2023-04-28T13:55:01;20.00;99.90
6146;DHT22;3104;50.348;7.620;2023-04-28T13:57:26;19.90;99.90
6146;DHT22;3104;50.348;7.620;2023-04-28T13:59:52;20.00;99.90
6146;DHT22;3104;50.348;7.620;2023-04-28T14:02:18;19.80;99.90
6146;DHT22;3104;50.348;7.620;2023-04-28T14:04:43;19.60;99.90
6146;DHT22;3104;50.348;7.620;2023-04-28T14:07:16;19.50;99.90
6146;DHT22;3104;50.348;7.620;2023-04-28T14:09:41;19.60;99.90
6146;DHT22;3104;50.348;7.620;2023-04-28T14:12:07;19.70;99.90
6146;DHT22;3104;50.348;7.620;2023-04-28T14:14:33;19.90;99.90
6146;DHT22;3104;50.348;7.620;2023-04-28T14:16:59;20.00;99.90
6146;DHT22;3104;50.348;7.620;2023-04-28T14:19:24;20.20;99.90
6146;DHT22;3104;50.348;7.620;2023-04-28T14:21:52;20.20;99.90
6146;DHT22;3104;50.348;7.620;2023-04-28T14:24:17;20.20;99.90
6146;DHT22;3104;50.348;7.620;2023-04-28T14:26:44;20.40;99.90
6146;DHT22;3104;50.348;7.620;2023-04-28T14:29:10;20.70;99.90
6146;DHT22;3104;50.348;7.620;2023-04-28T14:31:36;20.70;99.90
6146;DHT22;3104;50.348;7.620;2023-04-28T14:34:02;20.60;99.90
6146;DHT22;3104;50.348;7.620;2023-04-28T14:36:30;20.50;99.90
6146;DHT22;3104;50.348;7.620;2023-04-28T14:38:58;20.30;99.90
6146;DHT22;3104;50.348;7.620;2023-04-28T14:41:23;20.30;99.90
6146;DHT22;3104;50.348;7.620;2023-04-28T14:43:49;20.20;99.90
6146;DHT22;3104;50.348;7.620;2023-04-28T14:46:15;20.10;99.90
6146;DHT22;3104;50.348;7.620;2023-04-28T14:48:43;19.60;99.90
6146;DHT22;3104;50.348;7.620;2023-04-28T14:51:09;19.00;99.90
6146;DHT22;3104;50.348;7.620;2023-04-28T14:53:35;18.90;99.90
6146;DHT22;3104;50.348;7.620;2023-04-28T14:56:01;18.70;99.90
6146;DHT22;3104;50.348;7.620;2023-04-28T14:58:28;18.50;99.90
6146;DHT22;3104;50.348;7.620;2023-04-28T15:00:53;18.30;99.90
6146;DHT22;3104;50.348;7.620;2023-04-28T15:03:19;18.30;99.90
6146;DHT22;3104;50.348;7.620;2023-04-28T15:05:45;18.00;99.90
6146;DHT22;3104;50.348;7.620;2023-04-28T15:08:10;18.10;99.90
6146;DHT22;3104;50.348;7.620;2023-04-28T15:10:38;18.10;99.90
6146;DHT22;3104;50.348;7.620;2023-04-28T15:13:05;18.00;99.90
6146;DHT22;3104;50.348;7.620;2023-04-28T15:15:30;17.90;99.90
6146;DHT22;3104;50.348;7.620;2023-04-28T15:17:56;17.60;99.90
6146;DHT22;3104;50.348;7.620;2023-04-28T15:20:26;17.70;99.90
6146;DHT22;3104;50.348;7.620;2023-04-28T15:22:52;17.70;99.90
6146;DHT22;3104;50.348;7.620;2023-04-28T15:25:17;17.50;99.90
6146;DHT22;3104;50.348;7.620;2023-04-28T15:27:43;17.50;99.90
6146;DHT22;3104;50.348;7.620;2023-04-28T15:30:09;17.30;99.90
6146;DHT22;3104;50.348;7.620;2023-04-28T15:32:35;17.60;99.90
6146;DHT22;3104;50.348;7.620;2023-04-28T15:35:00;18.20;99.90
6146;DHT22;3104;50.348;7.620;2023-04-28T15:37:45;18.80;99.90
6146;DHT22;3104;50.348;7.620;2023-04-28T15:40:17;19.40;99.90
6146;DHT22;3104;50.348;7.620;2023-04-28T15:42:44;19.50;99.90
6146;DHT22;3104;50.348;7.620;2023-04-28T15:45:17;19.80;99.90
6146;DHT22;3104;50.348;7.620;2023-04-28T15:47:43;20.20;99.90
6146;DHT22;3104;50.348;7.620;2023-04-28T15:50:11;20.40;99.90
6146;DHT22;3104;50.348;7.620;2023-04-28T15:52:40;20.30;99.90
6146;DHT22;3104;50.348;7.620;2023-04-28T15:55:15;20.30;99.90
6146;DHT22;3104;50.348;7.620;2023-04-28T15:57:41;20.60;99.90
6146;DHT22;3104;50.348;7.620;2023-04-28T16:00:08;20.20;99.90
6146;DHT22;3104;50.348;7.620;2023-04-28T16:02:35;20.10;99.90
6146;DHT22;3104;50.348;7.620;2023-04-28T16:05:01;20.00;99.90
6146;DHT22;3104;50.348;7.620;2023-04-28T16:07:29;19.90;99.90
6146;DHT22;3104;50.348;7.620;2023-04-28T16:10:11;19.90;99.90
6146;DHT22;3104;50.348;7.620;2023-04-28T16:12:37;19.80;99.90
6146;DHT22;3104;50.348;7.620;2023-04-28T16:15:07;19.70;99.90
6146;DHT22;3104;50.348;7.620;2023-04-28T16:17:33;19.90;99.90
6146;DHT22;3104;50.348;7.620;2023-04-28T16:20:00;20.10;99.90
6146;DHT22;3104;50.348;7.620;2023-04-28T16:22:26;20.30;99.90